sensor_id;sensor_type;location;lat;lon;timestamp;pressure;altitude;pressure_sealevel;temperature;humidity
36798;BME280;22748;8.426;99.512;2023-05-01T00:00:18;100477.59;;;30.05;63.55
36798;BME280;22748;8.426;99.512;2023-05-01T00:02:48;100488.81;;;30.02;63.72
36798;BME280;22748;8.426;99.512;2023-05-01T00:05:31;100495.06;;;29.96;63.30
36798;BME280;22748;8.426;99.512;2023-05-01T00:08:01;100497.53;;;29.98;63.76
36798;BME280;22748;8.426;99.512;2023-05-01T00:10:35;100494.63;;;29.99;63.39
36798;BME280;22748;8.426;99.512;2023-05-01T00:13:05;100507.03;;;30.00;63.84
36798;BME280;22748;8.426;99.512;2023-05-01T00:15:41;100507.03;;;30.00;63.67
36798;BME280;22748;8.426;99.512;2023-05-01T00:18:12;100508.72;;;30.01;64.13
36798;BME280;22748;8.426;99.512;2023-05-01T00:20:45;100503.13;;;29.96;63.87
36798;BME280;22748;8.426;99.512;2023-05-01T00:23:20;100506.28;;;29.93;64.57
36798;BME280;22748;8.426;99.512;2023-05-01T00:25:55;100510.78;;;29.99;64.06
36798;BME280;22748;8.426;99.512;2023-05-01T00:28:25;100514.69;;;30.03;64.55
36798;BME280;22748;8.426;99.512;2023-05-01T00:31:01;100517.81;;;30.00;64.49
36798;BME280;22748;8.426;99.512;2023-05-01T00:33:32;100524.88;;;30.01;64.42
36798;BME280;22748;8.426;99.512;2023-05-01T00:36:05;100519.03;;;30.04;64.38
36798;BME280;22748;8.426;99.512;2023-05-01T00:38:40;100523.53;;;30.10;64.71
36798;BME280;22748;8.426;99.512;2023-05-01T00:41:16;100520.03;;;30.10;64.27
36798;BME280;22748;8.426;99.512;2023-05-01T00:43:48;100520.84;;;30.10;64.59
36798;BME280;22748;8.426;99.512;2023-05-01T00:46:24;100524.75;;;30.14;64.76
36798;BME280;22748;8.426;99.512;2023-05-01T00:48:54;100538.38;;;30.20;64.09
36798;BME280;22748;8.426;99.512;2023-05-01T00:51:27;100538.78;;;30.23;64.31
36798;BME280;22748;8.426;99.512;2023-05-01T00:54:03;100546.03;;;30.23;64.34
36798;BME280;22748;8.426;99.512;2023-05-01T00:56:35;100553.66;;;30.26;64.84
36798;BME280;22748;8.426;99.512;2023-05-01T00:59:06;100554.91;;;30.30;64.80
36798;BME280;22748;8.426;99.512;2023-05-01T01:01:38;100550.13;;;30.32;64.81
36798;BME280;22748;8.426;99.512;2023-05-01T01:04:10;100558.97;;;30.39;64.82
36798;BME280;22748;8.426;99.512;2023-05-01T01:06:51;100560.63;;;30.40;64.75
36798;BME280;22748;8.426;99.512;2023-05-01T01:09:36;100569.31;;;30.42;65.00
36798;BME280;22748;8.426;99.512;2023-05-01T01:12:18;100570.94;;;30.43;65.30
36798;BME280;22748;8.426;99.512;2023-05-01T01:15:01;100569.31;;;30.42;65.25
36798;BME280;22748;8.426;99.512;2023-05-01T01:17:41;100577.41;;;30.42;65.14
36798;BME280;22748;8.426;99.512;2023-05-01T01:20:36;100587.28;;;30.48;65.51
36798;BME280;22748;8.426;99.512;2023-05-01T01:23:35;100594.13;;;30.51;65.30
36798;BME280;22748;8.426;99.512;2023-05-01T01:29:45;100618.13;;;30.52;65.21
36798;BME280;22748;8.426;99.512;2023-05-01T01:32:58;100624.56;;;30.51;65.54
36798;BME280;22748;8.426;99.512;2023-05-01T01:35:32;100619.34;;;30.57;65.36
36798;BME280;22748;8.426;99.512;2023-05-01T01:38:16;100617.84;;;30.61;65.74
36798;BME280;22748;8.426;99.512;2023-05-01T01:41:00;100622.16;;;30.68;65.75
36798;BME280;22748;8.426;99.512;2023-05-01T01:43:36;100620.44;;;30.74;65.60
36798;BME280;22748;8.426;99.512;2023-05-01T01:46:14;100621.56;;;30.85;64.86
36798;BME280;22748;8.426;99.512;2023-05-01T01:48:59;100621.69;;;30.96;64.92
36798;BME280;22748;8.426;99.512;2023-05-01T01:51:34;100619.16;;;31.02;64.78
36798;BME280;22748;8.426;99.512;2023-05-01T01:54:07;100619.97;;;31.02;64.35
36798;BME280;22748;8.426;99.512;2023-05-01T01:56:46;100615.63;;;31.01;64.67
36798;BME280;22748;8.426;99.512;2023-05-01T01:59:19;100622.06;;;31.00;64.62
36798;BME280;22748;8.426;99.512;2023-05-01T02:01:53;100613.97;;;31.00;64.14
36798;BME280;22748;8.426;99.512;2023-05-01T02:04:29;100617.72;;;30.99;64.57
36798;BME280;22748;8.426;99.512;2023-05-01T02:07:13;100620.84;;;30.96;64.43
36798;BME280;22748;8.426;99.512;2023-05-01T02:09:51;100613.75;;;31.02;64.20
36798;BME280;22748;8.426;99.512;2023-05-01T02:12:24;100608.97;;;31.04;64.56
36798;BME280;22748;8.426;99.512;2023-05-01T02:14:57;100612.25;;;31.06;64.57
36798;BME280;22748;8.426;99.512;2023-05-01T02:17:30;100617.81;;;31.11;63.99
36798;BME280;22748;8.426;99.512;2023-05-01T02:20:07;100614.22;;;31.17;64.15
36798;BME280;22748;8.426;99.512;2023-05-01T02:22:46;100604.16;;;31.24;64.04
36798;BME280;22748;8.426;99.512;2023-05-01T02:25:16;100600.44;;;31.25;63.54
36798;BME280;22748;8.426;99.512;2023-05-01T02:27:56;100606.41;;;31.27;63.28
36798;BME280;22748;8.426;99.512;2023-05-01T02:30:34;100605.34;;;31.28;63.20
36798;BME280;22748;8.426;99.512;2023-05-01T02:33:07;100607.53;;;31.38;63.25
36798;BME280;22748;8.426;99.512;2023-05-01T02:35:54;100600.41;;;31.44;62.97
36798;BME280;22748;8.426;99.512;2023-05-01T02:38:39;100590.34;;;31.51;63.09
36798;BME280;22748;8.426;99.512;2023-05-01T02:41:09;100590.50;;;31.56;62.97
36798;BME280;22748;8.426;99.512;2023-05-01T02:43:42;100587.94;;;31.61;62.72
36798;BME280;22748;8.426;99.512;2023-05-01T02:46:16;100592.44;;;31.67;62.48
36798;BME280;22748;8.426;99.512;2023-05-01T02:48:48;100594.06;;;31.68;61.97
36798;BME280;22748;8.426;99.512;2023-05-01T02:51:24;100596.75;;;31.68;62.25
36798;BME280;22748;8.426;99.512;2023-05-01T02:54:02;100599.47;;;31.68;62.05
36798;BME280;22748;8.426;99.512;2023-05-01T02:56:48;100594.81;;;31.75;61.96
36798;BME280;22748;8.426;99.512;2023-05-01T02:59:26;100590.59;;;31.80;61.95
36798;BME280;22748;8.426;99.512;2023-05-01T03:01:56;100595.06;;;31.86;61.56
36798;BME280;22748;8.426;99.512;2023-05-01T03:04:27;100574.66;;;31.90;61.31
36798;BME280;22748;8.426;99.512;2023-05-01T03:07:07;100567.13;;;31.92;60.91
36798;BME280;22748;8.426;99.512;2023-05-01T03:09:45;100570.38;;;32.01;60.64
36798;BME280;22748;8.426;99.512;2023-05-01T03:12:16;100570.72;;;32.04;60.40
36798;BME280;22748;8.426;99.512;2023-05-01T03:14:45;100569.44;;;32.07;60.64
36798;BME280;22748;8.426;99.512;2023-05-01T03:17:19;100571.22;;;32.13;60.48
36798;BME280;22748;8.426;99.512;2023-05-01T03:19:56;100563.94;;;32.13;60.43
36798;BME280;22748;8.426;99.512;2023-05-01T03:22:33;100572.19;;;32.18;60.55
36798;BME280;22748;8.426;99.512;2023-05-01T03:25:07;100573.81;;;32.20;60.95
36798;BME280;22748;8.426;99.512;2023-05-01T03:27:40;100579.09;;;32.26;60.94
36798;BME280;22748;8.426;99.512;2023-05-01T03:30:14;100581.91;;;32.31;60.60
36798;BME280;22748;8.426;99.512;2023-05-01T03:32:44;100578.19;;;32.32;60.34
36798;BME280;22748;8.426;99.512;2023-05-01T03:35:22;100580.28;;;32.30;60.56
36798;BME280;22748;8.426;99.512;2023-05-01T03:37:53;100574.78;;;32.37;60.08
36798;BME280;22748;8.426;99.512;2023-05-01T03:40:40;100562.31;;;32.36;60.71
36798;BME280;22748;8.426;99.512;2023-05-01T03:43:11;100558.91;;;32.41;60.62
36798;BME280;22748;8.426;99.512;2023-05-01T03:45:42;100550.44;;;32.49;60.35
36798;BME280;22748;8.426;99.512;2023-05-01T03:48:13;100547.06;;;32.53;60.05
36798;BME280;22748;8.426;99.512;2023-05-01T03:50:44;100537.19;;;32.59;60.06
36798;BME280;22748;8.426;99.512;2023-05-01T03:53:14;100538.94;;;32.65;60.51
36798;BME280;22748;8.426;99.512;2023-05-01T03:55:50;100537.38;;;32.81;59.91
36798;BME280;22748;8.426;99.512;2023-05-01T03:58:25;100536.94;;;32.84;59.88
36798;BME280;22748;8.426;99.512;2023-05-01T04:00:54;100544.91;;;32.79;59.84
36798;BME280;22748;8.426;99.512;2023-05-01T04:03:27;100544.78;;;32.86;58.66
36798;BME280;22748;8.426;99.512;2023-05-01T04:05:58;100545.22;;;32.94;58.30
36798;BME280;22748;8.426;99.512;2023-05-01T04:08:28;100553.84;;;32.91;58.28
36798;BME280;22748;8.426;99.512;2023-05-01T04:11:03;100551.41;;;32.78;58.26
36798;BME280;22748;8.426;99.512;2023-05-01T04:13:34;100556.22;;;32.76;58.54
36798;BME280;22748;8.426;99.512;2023-05-01T04:16:04;100572.81;;;32.79;58.46
36798;BME280;22748;8.426;99.512;2023-05-01T04:18:35;100565.50;;;32.68;58.94
36798;BME280;22748;8.426;99.512;2023-05-01T04:21:06;100563.50;;;32.64;59.05
36798;BME280;22748;8.426;99.512;2023-05-01T04:23:35;100547.53;;;32.62;59.20
36798;BME280;22748;8.426;99.512;2023-05-01T04:26:10;100538.94;;;32.65;57.90
36798;BME280;22748;8.426;99.512;2023-05-01T04:28:42;100539.75;;;32.66;57.04
36798;BME280;22748;8.426;99.512;2023-05-01T04:31:28;100539.53;;;32.67;56.70
36798;BME280;22748;8.426;99.512;2023-05-01T04:33:59;100529.06;;;32.71;56.93
36798;BME280;22748;8.426;99.512;2023-05-01T04:36:35;100542.34;;;32.84;56.66
36798;BME280;22748;8.426;99.512;2023-05-01T04:39:06;100540.91;;;32.93;56.71
36798;BME280;22748;8.426;99.512;2023-05-01T04:41:41;100549.09;;;32.98;56.62
36798;BME280;22748;8.426;99.512;2023-05-01T04:44:16;100557.34;;;33.04;56.24
36798;BME280;22748;8.426;99.512;2023-05-01T04:46:50;100544.41;;;33.06;56.77
36798;BME280;22748;8.426;99.512;2023-05-01T04:49:21;100546.53;;;33.04;57.00
36798;BME280;22748;8.426;99.512;2023-05-01T04:51:53;100532.88;;;32.98;56.53
36798;BME280;22748;8.426;99.512;2023-05-01T04:54:26;100524.31;;;33.02;56.96
36798;BME280;22748;8.426;99.512;2023-05-01T04:57:03;100524.53;;;33.00;56.75
36798;BME280;22748;8.426;99.512;2023-05-01T04:59:34;100510.41;;;32.98;56.06
36798;BME280;22748;8.426;99.512;2023-05-01T05:02:06;100494.53;;;33.02;56.04
36798;BME280;22748;8.426;99.512;2023-05-01T05:04:36;100496.16;;;33.03;55.28
36798;BME280;22748;8.426;99.512;2023-05-01T05:07:06;100492.88;;;33.00;52.32
36798;BME280;22748;8.426;99.512;2023-05-01T05:09:38;100496.31;;;32.96;52.49
36798;BME280;22748;8.426;99.512;2023-05-01T05:12:12;100523.13;;;33.09;53.16
36798;BME280;22748;8.426;99.512;2023-05-01T05:14:46;100522.50;;;33.19;53.71
36798;BME280;22748;8.426;99.512;2023-05-01T05:17:17;100513.16;;;33.27;54.15
36798;BME280;22748;8.426;99.512;2023-05-01T05:19:46;100505.28;;;33.25;54.44
36798;BME280;22748;8.426;99.512;2023-05-01T05:22:17;100497.75;;;33.27;54.50
36798;BME280;22748;8.426;99.512;2023-05-01T05:24:53;100484.13;;;33.22;54.94
36798;BME280;22748;8.426;99.512;2023-05-01T05:27:28;100470.09;;;33.25;55.15
36798;BME280;22748;8.426;99.512;2023-05-01T05:30:03;100468.66;;;33.34;55.62
36798;BME280;22748;8.426;99.512;2023-05-01T05:32:32;100460.53;;;33.34;56.13
36798;BME280;22748;8.426;99.512;2023-05-01T05:35:03;100449.22;;;33.37;55.80
36798;BME280;22748;8.426;99.512;2023-05-01T05:37:32;100451.34;;;33.35;55.93
36798;BME280;22748;8.426;99.512;2023-05-01T05:40:04;100453.66;;;33.44;55.65
36798;BME280;22748;8.426;99.512;2023-05-01T05:42:37;100454.41;;;33.39;53.64
36798;BME280;22748;8.426;99.512;2023-05-01T05:45:09;100442.66;;;33.33;53.73
36798;BME280;22748;8.426;99.512;2023-05-01T05:47:39;100433.31;;;33.41;53.41
36798;BME280;22748;8.426;99.512;2023-05-01T05:50:10;100419.38;;;33.49;52.97
36798;BME280;22748;8.426;99.512;2023-05-01T05:52:41;100415.09;;;33.53;53.18
36798;BME280;22748;8.426;99.512;2023-05-01T05:55:11;100405.28;;;33.64;53.27
36798;BME280;22748;8.426;99.512;2023-05-01T05:57:44;100407.91;;;33.76;52.74
36798;BME280;22748;8.426;99.512;2023-05-01T06:00:15;100404.47;;;33.80;52.78
36798;BME280;22748;8.426;99.512;2023-05-01T06:02:45;100391.16;;;33.79;52.79
36798;BME280;22748;8.426;99.512;2023-05-01T06:05:19;100395.34;;;33.87;51.78
36798;BME280;22748;8.426;99.512;2023-05-01T06:07:57;100395.91;;;33.89;52.16
36798;BME280;22748;8.426;99.512;2023-05-01T06:10:29;100392.53;;;33.81;52.67
36798;BME280;22748;8.426;99.512;2023-05-01T06:13:00;100397.97;;;33.81;53.05
36798;BME280;22748;8.426;99.512;2023-05-01T06:15:30;100396.00;;;33.77;53.41
36798;BME280;22748;8.426;99.512;2023-05-01T06:18:00;100381.06;;;33.74;53.35
36798;BME280;22748;8.426;99.512;2023-05-01T06:20:30;100381.56;;;33.71;53.75
36798;BME280;22748;8.426;99.512;2023-05-01T06:23:00;100376.22;;;33.76;53.29
36798;BME280;22748;8.426;99.512;2023-05-01T06:25:30;100367.69;;;33.85;53.73
36798;BME280;22748;8.426;99.512;2023-05-01T06:28:03;100371.78;;;33.87;53.53
36798;BME280;22748;8.426;99.512;2023-05-01T06:30:33;100373.00;;;33.79;53.75
36798;BME280;22748;8.426;99.512;2023-05-01T06:33:04;100365.53;;;33.87;53.38
36798;BME280;22748;8.426;99.512;2023-05-01T06:35:37;100353.88;;;33.86;53.72
36798;BME280;22748;8.426;99.512;2023-05-01T06:38:08;100351.50;;;33.90;54.14
36798;BME280;22748;8.426;99.512;2023-05-01T06:40:38;100351.53;;;33.95;53.74
36798;BME280;22748;8.426;99.512;2023-05-01T06:43:15;100349.50;;;34.02;53.37
36798;BME280;22748;8.426;99.512;2023-05-01T06:45:46;100354.50;;;34.10;53.57
36798;BME280;22748;8.426;99.512;2023-05-01T06:48:17;100361.56;;;34.11;53.55
36798;BME280;22748;8.426;99.512;2023-05-01T06:50:49;100364.34;;;34.16;53.45
36798;BME280;22748;8.426;99.512;2023-05-01T06:53:19;100356.34;;;34.27;53.27
36798;BME280;22748;8.426;99.512;2023-05-01T06:55:50;100336.34;;;34.33;53.18
36798;BME280;22748;8.426;99.512;2023-05-01T06:58:21;100323.63;;;34.33;53.08
36798;BME280;22748;8.426;99.512;2023-05-01T07:00:52;100317.94;;;34.35;52.91
36798;BME280;22748;8.426;99.512;2023-05-01T07:03:33;100312.53;;;34.35;52.87
36798;BME280;22748;8.426;99.512;2023-05-01T07:06:06;100313.59;;;34.34;52.96
36798;BME280;22748;8.426;99.512;2023-05-01T07:08:37;100299.97;;;34.29;53.08
36798;BME280;22748;8.426;99.512;2023-05-01T07:11:09;100292.56;;;34.19;53.17
36798;BME280;22748;8.426;99.512;2023-05-01T07:13:40;100286.31;;;34.18;52.53
36798;BME280;22748;8.426;99.512;2023-05-01T07:16:12;100281.88;;;34.12;53.20
36798;BME280;22748;8.426;99.512;2023-05-01T07:18:45;100281.41;;;34.15;53.68
36798;BME280;22748;8.426;99.512;2023-05-01T07:21:19;100271.69;;;34.19;52.88
36798;BME280;22748;8.426;99.512;2023-05-01T07:23:50;100277.59;;;34.16;53.27
36798;BME280;22748;8.426;99.512;2023-05-01T07:26:20;100267.66;;;34.22;53.28
36798;BME280;22748;8.426;99.512;2023-05-01T07:28:54;100260.56;;;34.21;52.91
36798;BME280;22748;8.426;99.512;2023-05-01T07:31:24;100254.41;;;34.26;53.09
36798;BME280;22748;8.426;99.512;2023-05-01T07:33:55;100254.47;;;34.31;52.87
36798;BME280;22748;8.426;99.512;2023-05-01T07:36:27;100246.94;;;34.38;53.04
36798;BME280;22748;8.426;99.512;2023-05-01T07:38:57;100253.44;;;34.37;52.86
36798;BME280;22748;8.426;99.512;2023-05-01T07:41:27;100251.22;;;34.34;52.79
36798;BME280;22748;8.426;99.512;2023-05-01T07:44:01;100249.66;;;34.38;52.01
36798;BME280;22748;8.426;99.512;2023-05-01T07:46:46;100245.41;;;34.47;51.39
36798;BME280;22748;8.426;99.512;2023-05-01T07:49:25;100234.66;;;34.57;51.25
36798;BME280;22748;8.426;99.512;2023-05-01T07:51:55;100243.59;;;34.58;51.08
36798;BME280;22748;8.426;99.512;2023-05-01T07:54:27;100239.59;;;34.60;50.61
36798;BME280;22748;8.426;99.512;2023-05-01T07:56:57;100241.03;;;34.68;50.30
36798;BME280;22748;8.426;99.512;2023-05-01T07:59:31;100239.41;;;34.67;50.45
36798;BME280;22748;8.426;99.512;2023-05-01T08:02:01;100235.38;;;34.75;50.25
36798;BME280;22748;8.426;99.512;2023-05-01T08:04:31;100232.63;;;34.70;50.02
36798;BME280;22748;8.426;99.512;2023-05-01T08:07:04;100225.56;;;34.69;50.01
36798;BME280;22748;8.426;99.512;2023-05-01T08:09:35;100232.84;;;34.63;50.25
36798;BME280;22748;8.426;99.512;2023-05-01T08:12:06;100221.19;;;34.63;50.17
36798;BME280;22748;8.426;99.512;2023-05-01T08:14:39;100216.75;;;34.56;50.08
36798;BME280;22748;8.426;99.512;2023-05-01T08:17:10;100213.47;;;34.54;48.72
36798;BME280;22748;8.426;99.512;2023-05-01T08:19:41;100204.78;;;34.52;47.89
36798;BME280;22748;8.426;99.512;2023-05-01T08:22:12;100201.06;;;34.58;48.12
36798;BME280;22748;8.426;99.512;2023-05-01T08:24:42;100201.16;;;34.69;48.72
36798;BME280;22748;8.426;99.512;2023-05-01T08:27:13;100203.22;;;34.61;48.87
36798;BME280;22748;8.426;99.512;2023-05-01T08:29:46;100201.13;;;34.64;49.24
36798;BME280;22748;8.426;99.512;2023-05-01T08:32:17;100210.88;;;34.65;49.63
36798;BME280;22748;8.426;99.512;2023-05-01T08:34:48;100206.41;;;34.53;50.14
36798;BME280;22748;8.426;99.512;2023-05-01T08:37:19;100202.13;;;34.57;50.04
36798;BME280;22748;8.426;99.512;2023-05-01T08:39:49;100199.31;;;34.47;50.62
36798;BME280;22748;8.426;99.512;2023-05-01T08:42:20;100189.38;;;34.58;50.51
36798;BME280;22748;8.426;99.512;2023-05-01T08:44:53;100193.28;;;34.67;50.49
36798;BME280;22748;8.426;99.512;2023-05-01T08:47:27;100185.44;;;34.71;50.56
36798;BME280;22748;8.426;99.512;2023-05-01T08:49:59;100182.78;;;34.76;50.15
36798;BME280;22748;8.426;99.512;2023-05-01T08:52:30;100188.19;;;34.76;49.89
36798;BME280;22748;8.426;99.512;2023-05-01T08:54:59;100188.06;;;34.60;50.18
36798;BME280;22748;8.426;99.512;2023-05-01T08:57:30;100197.25;;;34.59;50.16
36798;BME280;22748;8.426;99.512;2023-05-01T09:00:04;100188.66;;;34.63;50.29
36798;BME280;22748;8.426;99.512;2023-05-01T09:02:36;100194.28;;;34.61;50.21
36798;BME280;22748;8.426;99.512;2023-05-01T09:05:09;100191.94;;;34.70;49.78
36798;BME280;22748;8.426;99.512;2023-05-01T09:07:41;100177.84;;;34.73;49.53
36798;BME280;22748;8.426;99.512;2023-05-01T09:10:14;100183.28;;;34.73;49.78
36798;BME280;22748;8.426;99.512;2023-05-01T09:12:46;100182.78;;;34.76;49.44
36798;BME280;22748;8.426;99.512;2023-05-01T09:15:20;100176.78;;;34.74;49.80
36798;BME280;22748;8.426;99.512;2023-05-01T09:17:54;100177.94;;;34.83;49.70
36798;BME280;22748;8.426;99.512;2023-05-01T09:20:25;100171.97;;;34.86;49.56
36798;BME280;22748;8.426;99.512;2023-05-01T09:22:56;100175.75;;;34.80;49.73
36798;BME280;22748;8.426;99.512;2023-05-01T09:25:27;100171.94;;;34.76;49.70
36798;BME280;22748;8.426;99.512;2023-05-01T09:27:57;100170.75;;;34.67;49.57
36798;BME280;22748;8.426;99.512;2023-05-01T09:30:34;100162.91;;;34.70;49.71
36798;BME280;22748;8.426;99.512;2023-05-01T09:33:06;100161.53;;;34.63;50.03
36798;BME280;22748;8.426;99.512;2023-05-01T09:35:54;100167.16;;;34.61;49.96
36798;BME280;22748;8.426;99.512;2023-05-01T09:38:26;100176.47;;;34.65;49.99
36798;BME280;22748;8.426;99.512;2023-05-01T09:41:04;100181.53;;;34.61;50.05
36798;BME280;22748;8.426;99.512;2023-05-01T09:43:34;100186.16;;;34.61;50.16
36798;BME280;22748;8.426;99.512;2023-05-01T09:46:08;100192.91;;;34.58;50.29
36798;BME280;22748;8.426;99.512;2023-05-01T09:48:39;100186.66;;;34.58;50.03
36798;BME280;22748;8.426;99.512;2023-05-01T09:51:24;100190.97;;;34.54;50.12
36798;BME280;22748;8.426;99.512;2023-05-01T09:53:57;100184.69;;;34.48;50.10
36798;BME280;22748;8.426;99.512;2023-05-01T09:56:28;100174.91;;;34.47;50.35
36798;BME280;22748;8.426;99.512;2023-05-01T09:59:14;100172.75;;;34.49;50.06
36798;BME280;22748;8.426;99.512;2023-05-01T10:01:49;100179.25;;;34.48;49.82
36798;BME280;22748;8.426;99.512;2023-05-01T10:04:34;100174.28;;;34.35;50.50
36798;BME280;22748;8.426;99.512;2023-05-01T10:07:22;100176.75;;;34.41;50.51
36798;BME280;22748;8.426;99.512;2023-05-01T10:09:52;100178.72;;;34.51;50.61
36798;BME280;22748;8.426;99.512;2023-05-01T10:12:24;100176.34;;;34.55;50.11
36798;BME280;22748;8.426;99.512;2023-05-01T10:14:56;100187.75;;;34.57;50.23
36798;BME280;22748;8.426;99.512;2023-05-01T10:17:29;100175.81;;;34.58;50.00
36798;BME280;22748;8.426;99.512;2023-05-01T10:20:01;100176.56;;;34.48;50.13
36798;BME280;22748;8.426;99.512;2023-05-01T10:22:32;100182.50;;;34.45;50.18
36798;BME280;22748;8.426;99.512;2023-05-01T10:25:05;100184.94;;;34.47;50.18
36798;BME280;22748;8.426;99.512;2023-05-01T10:27:39;100190.56;;;34.40;50.14
36798;BME280;22748;8.426;99.512;2023-05-01T10:30:10;100191.09;;;34.37;50.08
36798;BME280;22748;8.426;99.512;2023-05-01T10:33:03;100202.22;;;34.40;50.38
36798;BME280;22748;8.426;99.512;2023-05-01T10:35:36;100192.50;;;34.45;50.58
36798;BME280;22748;8.426;99.512;2023-05-01T10:38:10;100197.13;;;34.44;50.65
36798;BME280;22748;8.426;99.512;2023-05-01T10:40:47;100200.38;;;34.46;50.64
36798;BME280;22748;8.426;99.512;2023-05-01T10:43:20;100192.81;;;34.48;51.04
36798;BME280;22748;8.426;99.512;2023-05-01T10:49:05;100190.16;;;34.53;50.38
36798;BME280;22748;8.426;99.512;2023-05-01T10:52:00;100199.31;;;34.47;50.68
36798;BME280;22748;8.426;99.512;2023-05-01T10:54:31;100197.72;;;34.51;50.74
36798;BME280;22748;8.426;99.512;2023-05-01T10:57:04;100199.38;;;34.52;50.58
36798;BME280;22748;8.426;99.512;2023-05-01T11:02:37;100199.88;;;34.49;51.20
36798;BME280;22748;8.426;99.512;2023-05-01T11:05:09;100192.28;;;34.51;50.87
36798;BME280;22748;8.426;99.512;2023-05-01T11:07:41;100191.22;;;34.52;50.36
36798;BME280;22748;8.426;99.512;2023-05-01T11:10:26;100200.72;;;34.50;50.53
36798;BME280;22748;8.426;99.512;2023-05-01T11:12:58;100202.56;;;34.49;50.92
36798;BME280;22748;8.426;99.512;2023-05-01T11:15:30;100207.44;;;34.47;50.77
36798;BME280;22748;8.426;99.512;2023-05-01T11:18:01;100202.28;;;34.46;50.71
36798;BME280;22748;8.426;99.512;2023-05-01T11:20:56;100202.50;;;34.39;50.65
36798;BME280;22748;8.426;99.512;2023-05-01T11:23:27;100211.19;;;34.41;50.36
36798;BME280;22748;8.426;99.512;2023-05-01T11:26:12;100207.94;;;34.39;50.61
36798;BME280;22748;8.426;99.512;2023-05-01T11:28:44;100198.13;;;34.38;50.55
36798;BME280;22748;8.426;99.512;2023-05-01T11:31:17;100205.72;;;34.36;50.69
36798;BME280;22748;8.426;99.512;2023-05-01T11:33:48;100207.84;;;34.34;50.63
36798;BME280;22748;8.426;99.512;2023-05-01T11:36:21;100206.25;;;34.33;50.52
36798;BME280;22748;8.426;99.512;2023-05-01T11:38:52;100212.47;;;34.33;51.04
36798;BME280;22748;8.426;99.512;2023-05-01T11:41:24;100214.38;;;34.33;51.20
36798;BME280;22748;8.426;99.512;2023-05-01T11:43:57;100209.19;;;34.31;51.44
36798;BME280;22748;8.426;99.512;2023-05-01T11:46:28;100211.09;;;34.31;51.13
36798;BME280;22748;8.426;99.512;2023-05-01T11:49:00;100209.97;;;34.27;50.94
36798;BME280;22748;8.426;99.512;2023-05-01T11:51:33;100224.84;;;34.24;51.32
36798;BME280;22748;8.426;99.512;2023-05-01T11:54:05;100222.38;;;34.22;51.69
36798;BME280;22748;8.426;99.512;2023-05-01T11:56:37;100229.16;;;34.20;51.46
36798;BME280;22748;8.426;99.512;2023-05-01T11:59:13;100236.47;;;34.19;51.41
36798;BME280;22748;8.426;99.512;2023-05-01T12:01:44;100241.88;;;34.19;51.68
36798;BME280;22748;8.426;99.512;2023-05-01T12:04:24;100261.91;;;34.18;51.96
36798;BME280;22748;8.426;99.512;2023-05-01T12:06:57;100270.03;;;34.18;52.04
36798;BME280;22748;8.426;99.512;2023-05-01T12:09:28;100268.41;;;34.17;52.16
36798;BME280;22748;8.426;99.512;2023-05-01T12:12:00;100272.19;;;34.16;52.40
36798;BME280;22748;8.426;99.512;2023-05-01T12:14:31;100278.44;;;34.17;52.47
36798;BME280;22748;8.426;99.512;2023-05-01T12:17:01;100291.16;;;34.16;52.38
36798;BME280;22748;8.426;99.512;2023-05-01T12:19:31;100294.72;;;34.17;52.50
36798;BME280;22748;8.426;99.512;2023-05-01T12:22:08;100309.31;;;34.16;52.54
36798;BME280;22748;8.426;99.512;2023-05-01T12:24:50;100321.81;;;34.17;52.61
36798;BME280;22748;8.426;99.512;2023-05-01T12:27:21;100329.94;;;34.17;52.69
36798;BME280;22748;8.426;99.512;2023-05-01T12:29:51;100334.78;;;34.15;52.54
36798;BME280;22748;8.426;99.512;2023-05-01T12:32:30;100358.91;;;34.16;52.79
36798;BME280;22748;8.426;99.512;2023-05-01T12:35:11;100370.59;;;34.17;52.76
36798;BME280;22748;8.426;99.512;2023-05-01T12:37:42;100368.69;;;34.17;52.80
36798;BME280;22748;8.426;99.512;2023-05-01T12:40:14;100373.03;;;34.18;52.87
36798;BME280;22748;8.426;99.512;2023-05-01T12:42:54;100376.81;;;34.17;53.25
36798;BME280;22748;8.426;99.512;2023-05-01T12:45:25;100394.13;;;34.16;53.12
36798;BME280;22748;8.426;99.512;2023-05-01T12:47:55;100410.66;;;34.15;53.17
36798;BME280;22748;8.426;99.512;2023-05-01T12:50:25;100409.25;;;34.12;53.12
36798;BME280;22748;8.426;99.512;2023-05-01T12:53:01;100414.91;;;34.11;53.25
36798;BME280;22748;8.426;99.512;2023-05-01T12:55:41;100421.19;;;34.11;53.41
36798;BME280;22748;8.426;99.512;2023-05-01T12:58:15;100424.94;;;34.10;53.29
36798;BME280;22748;8.426;99.512;2023-05-01T13:00:57;100433.88;;;34.11;53.38
36798;BME280;22748;8.426;99.512;2023-05-01T13:03:29;100445.78;;;34.10;53.58
36798;BME280;22748;8.426;99.512;2023-05-01T13:06:01;100455.81;;;34.09;53.45
36798;BME280;22748;8.426;99.512;2023-05-01T13:08:34;100463.38;;;34.07;53.52
36798;BME280;22748;8.426;99.512;2023-05-01T13:11:11;100463.38;;;34.07;53.43
36798;BME280;22748;8.426;99.512;2023-05-01T13:13:43;100474.22;;;34.07;53.59
36798;BME280;22748;8.426;99.512;2023-05-01T13:16:14;100478.00;;;34.06;53.52
36798;BME280;22748;8.426;99.512;2023-05-01T13:18:47;100479.63;;;34.07;53.53
36798;BME280;22748;8.426;99.512;2023-05-01T13:21:19;100493.75;;;34.09;53.63
36798;BME280;22748;8.426;99.512;2023-05-01T13:23:57;100494.25;;;34.06;53.54
36798;BME280;22748;8.426;99.512;2023-05-01T13:26:29;100499.69;;;34.06;53.80
36798;BME280;22748;8.426;99.512;2023-05-01T13:29:00;100500.72;;;34.05;53.83
36798;BME280;22748;8.426;99.512;2023-05-01T13:31:32;100511.00;;;34.03;54.17
36798;BME280;22748;8.426;99.512;2023-05-01T13:34:03;100512.31;;;34.00;53.87